Time;durP1;ratioP1;P1;durP2;ratioP2;P2;SDS_P1;SDS_P2;PMS_P1;PMS_P2;Temp;Humidity;BMP_temperature;BMP_pressure;BME280_temperature;BME280_humidity;BME280_pressure;Samples;Min_cycle;Max_cycle;Signal;HPM_P1;HPM_P2
2022/01/12 00:00:47;;;;;;;21.95;10.15;;;;;;;1.75;87.18;103466.28;5010566;28;20030;-73
2022/01/12 00:03:13;;;;;;;20.30;10.00;;;;;;;1.77;86.93;103475.25;5026966;28;20347;-74
2022/01/12 00:05:39;;;;;;;23.15;10.80;;;;;;;1.78;87.06;103474.34;5024194;28;20026;-74
2022/01/12 00:08:05;;;;;;;21.38;10.80;;;;;;;1.79;87.26;103473.47;5021370;28;20060;-75
2022/01/12 00:10:30;;;;;;;24.55;10.60;;;;;;;1.81;86.94;103478.84;5023925;28;20155;-74
2022/01/12 00:12:55;;;;;;;25.60;10.85;;;;;;;1.82;87.44;103491.38;5014933;28;20030;-73
2022/01/12 00:15:20;;;;;;;22.08;11.00;;;;;;;1.83;87.24;103490.50;5021324;28;20394;-73
2022/01/12 00:17:46;;;;;;;22.55;10.57;;;;;;;1.85;86.91;103488.69;5011344;28;20029;-72
2022/01/12 00:20:11;;;;;;;22.90;10.10;;;;;;;1.85;87.07;103491.38;5015882;28;20026;-73
2022/01/12 00:22:39;;;;;;;21.75;10.45;;;;;;;1.88;87.20;103491.41;5007987;28;20052;-73
2022/01/12 00:25:23;;;;;;;22.35;10.98;;;;;;;1.87;86.46;103481.56;5008528;28;20017;-74
2022/01/12 00:33:16;;;;;;;20.63;10.23;;;;;;;1.96;87.14;103503.09;5015569;28;20052;-73
2022/01/12 00:35:45;;;;;;;22.35;10.95;;;;;;;1.97;86.94;103512.94;5018872;28;20483;-75
2022/01/12 00:38:11;;;;;;;22.33;10.23;;;;;;;1.98;86.75;103521.91;5013464;28;20117;-75
2022/01/12 00:40:41;;;;;;;29.98;11.15;;;;;;;1.96;86.83;103511.16;5007184;28;21124;-71
2022/01/12 00:43:07;;;;;;;22.92;11.05;;;;;;;1.97;87.04;103515.63;5011446;28;20025;-74
2022/01/12 00:45:44;;;;;;;20.90;10.38;;;;;;;1.97;87.25;103520.09;5025696;28;20028;-74
2022/01/12 00:48:10;;;;;;;25.45;11.45;;;;;;;1.98;87.36;103522.78;5025126;28;20021;-74
2022/01/12 00:50:36;;;;;;;23.90;11.63;;;;;;;1.97;87.59;103530.84;5025417;28;20030;-74
2022/01/12 00:53:03;;;;;;;25.73;12.30;;;;;;;1.95;88.24;103533.50;5021959;28;20050;-75
2022/01/12 00:55:32;;;;;;;29.38;11.63;;;;;;;1.93;88.92;103531.72;5025193;28;20142;-74
2022/01/12 00:57:58;;;;;;;23.20;12.07;;;;;;;1.92;89.49;103535.28;5021867;28;20029;-72
2022/01/12 01:00:25;;;;;;;21.38;11.20;;;;;;;1.91;89.54;103536.16;5023284;28;20700;-75
2022/01/12 01:02:51;;;;;;;27.33;12.27;;;;;;;1.88;90.01;103538.84;5027421;28;20033;-74
2022/01/12 01:05:20;;;;;;;25.25;12.45;;;;;;;1.84;90.46;103537.91;5020236;28;20056;-74
2022/01/12 01:07:46;;;;;;;32.00;13.20;;;;;;;1.79;90.72;103532.50;5027385;28;20068;-73
2022/01/12 01:10:15;;;;;;;26.42;12.57;;;;;;;1.79;90.89;103543.25;5026443;28;20029;-75
2022/01/12 01:12:41;;;;;;;25.52;12.88;;;;;;;1.77;91.24;103542.34;5007212;28;20022;-75
2022/01/12 01:15:11;;;;;;;29.23;12.98;;;;;;;1.74;91.32;103547.69;5015574;28;20040;-73
2022/01/12 01:25:47;;;;;;;36.90;14.35;;;;;;;1.65;92.30;103527.94;5016921;28;20076;-74
2022/01/12 01:28:14;;;;;;;31.63;13.90;;;;;;;1.66;92.29;103527.03;5007563;28;20037;-75
2022/01/12 01:30:42;;;;;;;34.10;14.73;;;;;;;1.64;92.52;103521.66;5014082;28;20029;-74
2022/01/12 01:33:10;;;;;;;32.40;14.95;;;;;;;1.61;92.48;103534.16;5007128;28;20017;-75
2022/01/12 01:35:41;;;;;;;33.70;14.23;;;;;;;1.61;92.82;103542.19;5006963;28;20044;-74
2022/01/12 01:38:07;;;;;;;25.38;14.18;;;;;;;1.59;92.87;103542.19;5026602;28;20036;-74
2022/01/12 01:40:37;;;;;;;35.97;15.85;;;;;;;1.57;93.11;103548.44;5027232;28;20469;-75
2022/01/12 01:53:47;;;;;;;34.70;14.55;;;;;;;1.57;93.20;103543.06;5015945;28;20076;-74
2022/01/12 01:56:13;;;;;;;34.78;15.82;;;;;;;1.56;93.27;103527.84;5022709;28;20025;-74
2022/01/12 01:58:39;;;;;;;37.97;15.30;;;;;;;1.56;93.38;103522.50;5024185;28;20584;-74
2022/01/12 02:01:04;;;;;;;36.60;14.60;;;;;;;1.57;93.24;103518.91;5026528;28;20136;-73
2022/01/12 02:03:30;;;;;;;31.45;15.30;;;;;;;1.55;93.53;103516.22;5027109;28;20101;-72
2022/01/12 02:05:56;;;;;;;32.63;14.98;;;;;;;1.57;93.41;103513.56;5023688;28;20033;-74
2022/01/12 02:08:22;;;;;;;31.73;14.65;;;;;;;1.55;93.23;103521.59;5025338;28;20163;-72
2022/01/12 02:10:55;;;;;;;35.40;16.52;;;;;;;1.56;93.60;103519.81;5009945;28;20034;-73
2022/01/12 02:13:20;;;;;;;33.70;14.38;;;;;;;1.56;93.50;103512.66;5023870;28;20056;-74
2022/01/12 02:15:46;;;;;;;34.20;14.85;;;;;;;1.58;93.58;103515.34;5024961;28;20061;-74
2022/01/12 02:40:08;;;;;;;34.03;15.60;;;;;;;1.56;93.84;103555.56;5014856;28;20040;-73
2022/01/12 02:42:34;;;;;;;29.25;14.63;;;;;;;1.58;93.81;103558.25;5025656;28;20037;-73
2022/01/12 02:50:55;;;;;;;32.78;15.68;;;;;;;1.54;93.95;103552.00;5011715;28;20095;-75
2022/01/12 02:53:42;;;;;;;28.05;14.02;;;;;;;1.53;94.03;103560.91;5020848;28;20042;-74
2022/01/12 02:56:08;;;;;;;34.00;14.90;;;;;;;1.55;94.05;103567.19;5015663;28;20023;-74
2022/01/12 02:58:34;;;;;;;30.65;15.13;;;;;;;1.56;93.57;103571.69;5024607;28;20034;-74
2022/01/12 03:03:47;;;;;;;34.65;16.05;;;;;;;1.55;93.77;103569.88;5024032;28;20037;-75
2022/01/12 03:06:17;;;;;;;40.78;17.75;;;;;;;1.56;93.96;103586.88;5027622;28;20025;-74
2022/01/12 03:08:43;;;;;;;28.90;13.82;;;;;;;1.57;93.91;103594.03;5027951;28;20080;-74
2022/01/12 03:11:11;;;;;;;30.45;13.88;;;;;;;1.56;93.86;103594.94;5026047;28;20033;-73
2022/01/12 03:13:37;;;;;;;31.52;14.25;;;;;;;1.59;93.99;103606.59;5012088;28;20025;-74
2022/01/12 03:16:18;;;;;;;34.97;17.45;;;;;;;1.61;93.77;103599.44;5027720;28;20017;-75
2022/01/12 03:18:45;;;;;;;38.35;15.65;;;;;;;1.61;93.92;103606.59;5029611;28;20444;-74
2022/01/12 03:21:12;;;;;;;35.30;15.50;;;;;;;1.63;93.92;103610.19;5027139;28;20029;-72
2022/01/12 03:23:38;;;;;;;32.08;14.10;;;;;;;1.63;94.01;103608.41;5025281;28;20497;-74
2022/01/12 03:26:04;;;;;;;33.15;15.68;;;;;;;1.60;93.81;103605.69;5029613;28;20029;-73
2022/01/12 03:28:30;;;;;;;33.97;15.40;;;;;;;1.61;93.87;103614.63;5020887;28;20036;-73
2022/01/12 03:31:03;;;;;;;33.33;15.95;;;;;;;1.61;94.10;103615.53;5028264;28;20033;-74
2022/01/12 03:38:44;;;;;;;46.08;19.13;;;;;;;1.58;93.89;103596.72;5008590;28;20087;-73
2022/01/12 03:41:10;;;;;;;35.90;16.23;;;;;;;1.58;94.14;103599.41;5022787;28;20498;-75
2022/01/12 03:43:35;;;;;;;38.17;15.70;;;;;;;1.57;93.94;103599.41;5020663;28;20026;-73
2022/01/12 03:46:00;;;;;;;43.17;16.65;;;;;;;1.55;94.17;103596.72;5012831;28;20055;-73
2022/01/12 03:48:26;;;;;;;32.92;16.35;;;;;;;1.55;94.36;103602.06;5028720;28;20104;-74
2022/01/12 03:50:51;;;;;;;35.22;17.13;;;;;;;1.53;94.42;103595.78;5015389;28;20042;-73
2022/01/12 03:53:16;;;;;;;38.55;17.23;;;;;;;1.57;94.16;103596.72;5027992;28;20038;-73
2022/01/12 03:55:43;;;;;;;41.03;17.58;;;;;;;1.53;94.09;103599.34;5024923;28;20469;-74
2022/01/12 03:58:10;;;;;;;34.95;16.98;;;;;;;1.57;94.20;103610.13;5020043;28;20040;-74
2022/01/12 04:00:36;;;;;;;45.95;17.58;;;;;;;1.62;94.52;103627.16;5019503;28;20025;-73
2022/01/12 04:03:05;;;;;;;42.25;17.65;;;;;;;1.62;94.45;103641.47;5023475;28;20449;-74
2022/01/12 04:08:20;;;;;;;38.00;18.63;;;;;;;1.65;94.44;103635.25;5028223;28;20037;-74
2022/01/12 04:10:49;;;;;;;39.42;17.95;;;;;;;1.65;94.14;103632.56;5027795;28;20071;-74
2022/01/12 04:13:15;;;;;;;46.00;17.20;;;;;;;1.65;94.14;103625.41;5017172;28;20034;-74
2022/01/12 04:15:43;;;;;;;42.55;16.75;;;;;;;1.64;94.02;103629.00;5019345;28;20033;-74
2022/01/12 04:18:08;;;;;;;39.25;18.00;;;;;;;1.65;94.37;103624.53;5022304;28;20029;-73
2022/01/12 04:20:33;;;;;;;44.88;17.73;;;;;;;1.62;94.67;103636.09;5027528;28;20048;-73
2022/01/12 04:23:17;;;;;;;47.13;19.73;;;;;;;1.60;94.33;103631.63;5023463;28;20025;-74
2022/01/12 04:25:52;;;;;;;44.10;19.30;;;;;;;1.62;94.50;103638.78;5024376;28;20053;-74
2022/01/12 04:28:20;;;;;;;42.33;18.10;;;;;;;1.61;94.66;103634.31;5017781;28;20037;-73
2022/01/12 04:30:46;;;;;;;40.40;18.67;;;;;;;1.59;94.40;103638.78;5024385;28;20679;-74
2022/01/12 04:33:12;;;;;;;44.60;19.67;;;;;;;1.59;94.48;103630.72;5024266;28;20064;-74
2022/01/12 04:35:46;;;;;;;37.20;17.35;;;;;;;1.60;94.32;103620.91;5021784;28;20440;-74
2022/01/12 04:38:12;;;;;;;40.38;16.90;;;;;;;1.61;94.39;103618.22;5024107;28;20040;-74
2022/01/12 04:40:38;;;;;;;42.22;19.48;;;;;;;1.61;94.54;103623.59;5022246;28;20533;-74
2022/01/12 04:43:04;;;;;;;40.30;17.98;;;;;;;1.61;94.68;103620.91;5021656;28;20044;-74
2022/01/12 04:45:39;;;;;;;46.17;18.50;;;;;;;1.60;94.56;103616.44;5021163;28;20061;-74
2022/01/12 04:50:44;;;;;;;47.15;20.90;;;;;;;1.63;94.37;103615.53;5023407;28;20038;-73
2022/01/12 04:53:11;;;;;;;41.88;19.70;;;;;;;1.62;94.69;103621.81;5022938;28;20549;-74
2022/01/12 04:55:37;;;;;;;43.25;18.90;;;;;;;1.57;94.69;103608.34;5021515;28;20053;-74
2022/01/12 04:58:03;;;;;;;39.08;18.13;;;;;;;1.61;94.71;103610.16;5018341;28;20065;-74
2022/01/12 05:00:30;;;;;;;42.78;19.58;;;;;;;1.62;94.55;103603.03;5024027;28;20107;-74
2022/01/12 05:13:38;;;;;;;48.53;19.33;;;;;;;1.59;94.82;103611.06;5019648;28;20072;-75
2022/01/12 05:16:04;;;;;;;45.97;20.38;;;;;;;1.59;95.08;103617.31;5022869;28;20037;-75
2022/01/12 05:18:31;;;;;;;49.15;20.00;;;;;;;1.61;95.11;103618.22;5025073;28;20033;-75
2022/01/12 05:20:57;;;;;;;58.63;21.42;;;;;;;1.60;95.07;103619.13;5023751;28;20665;-74
2022/01/12 05:23:23;;;;;;;44.70;20.45;;;;;;;1.59;95.11;103613.75;5025259;28;20028;-75
2022/01/12 05:25:51;;;;;;;49.67;20.15;;;;;;;1.61;94.89;103617.31;5019441;28;20033;-74
2022/01/12 05:28:17;;;;;;;48.75;19.83;;;;;;;1.62;95.12;103620.00;5021528;28;20021;-75
2022/01/12 05:30:42;;;;;;;47.85;21.17;;;;;;;1.63;94.86;103618.22;5021844;28;20025;-74
2022/01/12 05:33:08;;;;;;;41.85;20.70;;;;;;;1.62;94.88;103620.00;5021144;28;20041;-75
2022/01/12 05:35:34;;;;;;;49.35;19.80;;;;;;;1.62;95.03;103638.78;5024423;28;20033;-75
2022/01/12 05:38:04;;;;;;;48.55;21.13;;;;;;;1.62;95.05;103644.16;5022768;28;20059;-75
2022/01/12 05:40:30;;;;;;;56.28;22.55;;;;;;;1.61;95.09;103642.38;5025459;28;20091;-76
2022/01/12 05:42:59;;;;;;;54.28;21.80;;;;;;;1.62;94.79;103644.16;5018619;28;20029;-75
2022/01/12 05:45:25;;;;;;;45.47;20.50;;;;;;;1.65;95.13;103643.31;5021818;28;20029;-75
2022/01/12 05:50:17;;;;;;;50.45;21.13;;;;;;;1.67;94.98;103649.56;5023513;28;20131;-74
2022/01/12 05:52:42;;;;;;;48.33;21.75;;;;;;;1.67;95.03;103647.78;5025777;28;20112;-75
2022/01/12 05:55:10;;;;;;;50.90;22.40;;;;;;;1.65;95.01;103641.53;5008281;28;20140;-75
2022/01/12 05:57:36;;;;;;;45.40;19.92;;;;;;;1.65;95.19;103638.84;5006646;28;20042;-75
2022/01/12 06:00:06;;;;;;;49.10;20.58;;;;;;;1.63;95.31;103635.25;5007640;28;20022;-74
2022/01/12 06:02:31;;;;;;;52.03;19.77;;;;;;;1.65;95.22;103641.53;5007792;28;20083;-75
2022/01/12 06:04:56;;;;;;;47.50;21.55;;;;;;;1.65;94.96;103641.53;5019246;28;20029;-74
2022/01/12 06:07:22;;;;;;;46.22;20.73;;;;;;;1.66;94.92;103645.09;5025400;28;20416;-75
2022/01/12 06:09:47;;;;;;;49.42;21.30;;;;;;;1.67;95.07;103649.56;5024371;28;20030;-74
2022/01/12 06:12:13;;;;;;;56.97;20.55;;;;;;;1.65;95.24;103646.88;5020986;28;20029;-74
2022/01/12 06:14:38;;;;;;;54.17;21.20;;;;;;;1.67;95.55;103649.56;5026797;28;20083;-75
2022/01/12 06:17:04;;;;;;;46.70;20.15;;;;;;;1.66;95.45;103647.78;5022827;28;20029;-75
2022/01/12 06:19:29;;;;;;;50.00;20.00;;;;;;;1.64;95.02;103655.81;5010413;28;20128;-74
2022/01/12 06:21:55;;;;;;;43.03;20.02;;;;;;;1.67;95.41;103665.66;5009855;28;20057;-75
2022/01/12 06:24:20;;;;;;;44.05;19.15;;;;;;;1.70;95.11;103673.75;5023184;28;20018;-75
2022/01/12 06:26:47;;;;;;;44.20;21.25;;;;;;;1.69;95.22;103680.03;5026443;28;20385;-75
2022/01/12 06:29:26;;;;;;;47.13;19.98;;;;;;;1.71;95.18;103679.13;5021604;28;20025;-75
2022/01/12 06:31:56;;;;;;;50.85;21.25;;;;;;;1.73;95.21;103688.13;5025216;28;20032;-74
2022/01/12 06:34:22;;;;;;;51.60;20.95;;;;;;;1.73;95.35;103690.81;5018801;28;20068;-74
2022/01/12 06:36:48;;;;;;;46.35;20.15;;;;;;;1.76;95.32;103696.19;5009583;28;20026;-75
2022/01/12 06:39:17;;;;;;;48.63;20.33;;;;;;;1.76;95.33;103697.97;5010238;28;20540;-74
2022/01/12 06:41:44;;;;;;;46.88;20.48;;;;;;;1.77;95.29;103700.69;5015318;28;20037;-74
2022/01/12 06:44:14;;;;;;;45.60;20.30;;;;;;;1.79;95.16;103715.00;5008142;28;20026;-75
2022/01/12 06:46:39;;;;;;;45.03;20.35;;;;;;;1.78;95.23;103707.84;5009445;28;20030;-75
2022/01/12 06:49:05;;;;;;;50.45;20.63;;;;;;;1.81;95.23;103719.47;5016776;28;20104;-75
2022/01/12 06:51:30;;;;;;;42.58;19.98;;;;;;;1.81;94.93;103715.00;5014991;28;20392;-75
2022/01/12 06:53:56;;;;;;;46.40;20.27;;;;;;;1.82;94.85;103707.84;5012132;28;20685;-75
2022/01/12 06:56:21;;;;;;;47.30;20.60;;;;;;;1.80;94.93;103699.81;5009998;28;20017;-75
2022/01/12 06:58:48;;;;;;;46.92;20.23;;;;;;;1.81;95.25;103708.75;5011537;28;20040;-76
2022/01/12 07:01:13;;;;;;;47.90;21.00;;;;;;;1.80;95.21;103713.22;5017339;28;20026;-76
2022/01/12 07:03:38;;;;;;;51.85;21.70;;;;;;;1.82;95.31;103721.28;5010168;28;20060;-75
2022/01/12 07:06:04;;;;;;;50.72;20.10;;;;;;;1.81;95.16;103715.00;5029166;28;20102;-76
2022/01/12 07:08:32;;;;;;;51.90;20.75;;;;;;;1.82;95.30;103724.88;5026782;28;20139;-76
2022/01/12 07:10:57;;;;;;;56.10;21.10;;;;;;;1.83;95.37;103733.84;5020492;28;20026;-75
2022/01/12 07:13:23;;;;;;;50.97;20.70;;;;;;;1.84;95.26;103735.63;5035149;28;20021;-75
2022/01/12 07:15:48;;;;;;;46.88;19.17;;;;;;;1.86;95.32;103740.13;5017549;28;20473;-75
2022/01/12 07:18:14;;;;;;;43.80;21.27;;;;;;;1.85;95.21;103726.69;5028083;28;20026;-76
2022/01/12 07:20:39;;;;;;;54.55;20.80;;;;;;;1.86;95.22;103726.69;5029287;28;20543;-76
2022/01/12 07:23:05;;;;;;;52.20;21.58;;;;;;;1.84;95.08;103731.16;5022840;28;20018;-75
2022/01/12 07:25:30;;;;;;;45.83;18.52;;;;;;;1.84;94.89;103722.22;5010930;28;20242;-75
2022/01/12 07:27:55;;;;;;;52.22;20.75;;;;;;;1.85;95.45;103737.44;5021313;28;20010;-75
2022/01/12 07:30:22;;;;;;;52.05;22.52;;;;;;;1.84;95.38;103738.31;5021484;28;20059;-75
2022/01/12 07:32:48;;;;;;;53.35;21.45;;;;;;;1.83;95.18;103744.56;5028429;28;20392;-75
2022/01/12 07:35:13;;;;;;;49.40;20.70;;;;;;;1.84;95.36;103752.63;5028410;28;20026;-76
2022/01/12 07:37:38;;;;;;;52.28;20.63;;;;;;;1.84;95.18;103763.38;5027176;28;20021;-75
2022/01/12 07:40:04;;;;;;;56.28;21.52;;;;;;;1.86;95.68;103768.75;5029089;28;20393;-75
2022/01/12 07:42:30;;;;;;;50.67;20.38;;;;;;;1.85;95.43;103769.63;5024851;28;20041;-76
2022/01/12 07:44:59;;;;;;;51.55;20.88;;;;;;;1.90;95.28;103773.25;5007842;28;20030;-74
2022/01/12 07:47:28;;;;;;;53.63;21.27;;;;;;;1.91;95.40;103780.44;5023426;28;20029;-75
2022/01/12 07:49:54;;;;;;;50.47;19.83;;;;;;;1.93;95.36;103781.38;5027053;28;20038;-74
2022/01/12 07:52:20;;;;;;;53.45;22.13;;;;;;;1.95;95.36;103779.59;5013442;28;20025;-75
2022/01/12 07:54:45;;;;;;;49.55;20.10;;;;;;;1.95;94.95;103788.53;5024334;28;20154;-75
2022/01/12 07:57:11;;;;;;;48.83;20.27;;;;;;;1.96;94.89;103794.84;5019936;28;20041;-76
2022/01/12 07:59:36;;;;;;;56.28;21.10;;;;;;;1.97;95.32;103789.47;5025126;28;20029;-74
2022/01/12 08:02:02;;;;;;;49.17;19.67;;;;;;;1.95;95.34;103790.31;5024200;28;20036;-75
2022/01/12 08:04:27;;;;;;;50.35;22.63;;;;;;;1.98;95.23;103811.84;5006601;28;20532;-75
2022/01/12 08:06:52;;;;;;;55.55;21.08;;;;;;;1.97;95.50;103807.38;5007172;28;20022;-75
2022/01/12 08:09:18;;;;;;;53.60;22.60;;;;;;;1.99;95.50;103817.22;5015125;28;20025;-75
2022/01/12 08:11:43;;;;;;;59.90;23.00;;;;;;;2.03;95.66;103820.84;5026627;28;20029;-75
2022/01/12 08:14:08;;;;;;;58.50;23.13;;;;;;;2.03;95.66;103836.97;5023660;28;20036;-75
2022/01/12 08:16:34;;;;;;;65.57;22.92;;;;;;;2.00;95.75;103832.44;5022573;28;20042;-75
2022/01/12 08:18:59;;;;;;;67.72;24.50;;;;;;;2.00;95.54;103827.06;5024148;28;20455;-75
2022/01/12 08:21:27;;;;;;;64.15;23.17;;;;;;;2.04;95.69;103831.59;5026498;28;20025;-74
2022/01/12 08:23:52;;;;;;;75.32;23.38;;;;;;;2.06;95.88;103830.72;5023839;28;20024;-75
2022/01/12 08:26:17;;;;;;;57.33;24.10;;;;;;;2.07;96.01;103838.78;5026592;28;20037;-76
2022/01/12 08:28:43;;;;;;;66.45;23.08;;;;;;;2.07;95.82;103836.09;5014324;28;20041;-75
2022/01/12 08:31:08;;;;;;;60.97;23.00;;;;;;;2.06;95.85;103828.06;5025515;28;20025;-75
2022/01/12 08:33:33;;;;;;;60.10;23.10;;;;;;;2.09;95.73;103831.63;5028307;28;20025;-75
2022/01/12 08:35:58;;;;;;;66.75;23.38;;;;;;;2.11;95.93;103837.94;5025930;28;20025;-76
2022/01/12 08:38:24;;;;;;;67.20;24.63;;;;;;;2.13;95.92;103840.63;5021302;28;20030;-76
2022/01/12 08:40:49;;;;;;;65.30;21.75;;;;;;;2.16;96.20;103833.53;5019864;28;20044;-76
2022/01/12 08:43:15;;;;;;;65.85;23.55;;;;;;;2.20;95.92;103834.47;5009754;28;20033;-76
2022/01/12 08:45:40;;;;;;;65.63;22.90;;;;;;;2.19;96.13;103825.50;5007872;28;20095;-75
2022/01/12 08:48:05;;;;;;;70.35;24.10;;;;;;;2.21;96.31;103826.41;5027527;28;20043;-75
2022/01/12 08:50:30;;;;;;;64.10;23.17;;;;;;;2.25;96.25;103830.94;5011294;28;20036;-74
2022/01/12 08:52:56;;;;;;;62.17;24.52;;;;;;;2.26;96.05;103830.03;5025973;28;20486;-75
2022/01/12 08:55:23;;;;;;;77.30;26.23;;;;;;;2.32;96.28;103842.63;5026294;28;20041;-75
2022/01/12 08:57:50;;;;;;;71.40;25.52;;;;;;;2.34;96.44;103845.34;5021471;28;20084;-76
2022/01/12 09:00:17;;;;;;;73.20;24.10;;;;;;;2.38;96.53;103853.47;5009477;28;20030;-74
2022/01/12 09:02:43;;;;;;;61.85;23.48;;;;;;;2.41;96.35;103850.78;5026706;28;20064;-75
2022/01/12 09:05:11;;;;;;;81.65;24.77;;;;;;;2.45;96.53;103855.31;5026840;28;20457;-76
2022/01/12 09:07:36;;;;;;;67.60;23.23;;;;;;;2.48;96.46;103863.41;5021884;28;20029;-74
2022/01/12 09:10:03;;;;;;;73.78;24.98;;;;;;;2.51;96.36;103865.22;5026859;28;20020;-75
2022/01/12 09:12:28;;;;;;;89.50;26.75;;;;;;;2.52;96.55;103872.41;5022952;28;20025;-75
2022/01/12 09:14:53;;;;;;;80.18;25.33;;;;;;;2.51;96.51;103871.47;5011095;28;20048;-75
2022/01/12 09:17:21;;;;;;;84.88;26.33;;;;;;;2.56;96.98;103876.91;5022496;28;20025;-75
2022/01/12 09:19:47;;;;;;;78.00;22.08;;;;;;;2.61;96.74;103890.38;5021690;28;20462;-75
2022/01/12 09:22:13;;;;;;;81.53;22.60;;;;;;;2.63;96.68;103894.00;5018009;28;20084;-75
2022/01/12 09:24:38;;;;;;;93.45;24.42;;;;;;;2.67;97.03;103890.47;5012245;28;20064;-75
2022/01/12 09:27:04;;;;;;;78.03;23.33;;;;;;;2.73;96.98;103890.50;5020888;28;20018;-74
2022/01/12 09:29:30;;;;;;;61.85;22.42;;;;;;;2.75;96.55;103896.78;5005799;28;20034;-74
2022/01/12 09:31:55;;;;;;;85.18;23.25;;;;;;;2.75;96.94;103894.09;5021304;28;20034;-75
2022/01/12 09:34:20;;;;;;;83.57;21.23;;;;;;;2.77;96.88;103895.94;5016102;28;20032;-74
2022/01/12 09:36:46;;;;;;;73.28;20.45;;;;;;;2.77;96.92;103898.63;5024775;28;20079;-75
2022/01/12 09:39:11;;;;;;;71.25;19.35;;;;;;;2.81;96.91;103905.81;5023494;28;20465;-74
2022/01/12 09:41:37;;;;;;;80.88;17.70;;;;;;;2.83;96.88;103904.94;5030121;28;20461;-75
2022/01/12 09:44:03;;;;;;;46.25;16.35;;;;;;;2.80;97.08;103909.41;5018805;28;20489;-75
2022/01/12 09:46:28;;;;;;;50.95;15.73;;;;;;;2.82;96.75;103906.72;5020916;28;20041;-74
2022/01/12 09:48:55;;;;;;;47.97;16.83;;;;;;;2.86;96.59;103902.28;5023707;28;20289;-76
2022/01/12 09:51:21;;;;;;;47.80;17.70;;;;;;;2.90;96.43;103909.50;5029747;28;20108;-74
2022/01/12 09:53:47;;;;;;;58.30;15.95;;;;;;;2.95;96.71;103919.41;5029933;28;20045;-75
2022/01/12 09:56:20;;;;;;;76.65;19.42;;;;;;;2.94;96.74;103917.59;5027921;28;20044;-75
2022/01/12 09:58:47;;;;;;;83.70;17.25;;;;;;;2.95;96.66;103921.19;5024223;28;20026;-75
2022/01/12 10:01:24;;;;;;;70.28;16.30;;;;;;;2.90;96.64;103923.84;5022871;28;20096;-75
2022/01/12 10:03:49;;;;;;;54.33;16.42;;;;;;;2.93;96.97;103931.00;5023653;28;20040;-74
2022/01/12 10:06:16;;;;;;;72.53;17.27;;;;;;;2.95;96.66;103940.91;5017539;28;20042;-75
2022/01/12 10:08:42;;;;;;;63.70;16.55;;;;;;;3.00;96.59;103943.63;5012969;28;20108;-75
2022/01/12 10:11:14;;;;;;;92.15;16.85;;;;;;;2.95;96.57;103945.38;5028578;28;20029;-75
2022/01/12 10:13:40;;;;;;;133.18;17.30;;;;;;;2.92;96.48;103953.41;5016718;28;20030;-76
2022/01/12 10:16:11;;;;;;;114.68;18.10;;;;;;;2.89;96.83;103950.69;5009878;28;20516;-75
2022/01/12 10:18:47;;;;;;;91.45;18.20;;;;;;;2.89;96.93;103946.25;5015959;28;20482;-75
2022/01/12 10:21:34;;;;;;;140.18;15.80;;;;;;;2.89;96.24;103939.94;5021242;28;20034;-75
2022/01/12 10:24:05;;;;;;;131.57;17.38;;;;;;;2.82;96.54;103949.75;5016863;28;20033;-74
2022/01/12 10:26:37;;;;;;;112.95;18.95;;;;;;;2.74;96.54;103948.75;5014783;28;20041;-74
2022/01/12 10:29:09;;;;;;;60.25;16.00;;;;;;;2.71;96.94;103935.31;5015234;28;20028;-75
2022/01/12 10:32:03;;;;;;;44.05;14.30;;;;;;;2.71;96.79;103930.81;5024689;28;20053;-74
2022/01/12 10:34:29;;;;;;;;;;;;;;;2.74;96.27;103920.09;5014771;28;20036;-75
2022/01/12 10:36:56;;;;;;;53.05;15.23;;;;;;;2.76;96.17;103926.41;5008428;28;20444;-74
2022/01/12 10:39:26;;;;;;;57.75;17.55;;;;;;;2.75;96.80;103929.97;5027783;28;20025;-75
2022/01/12 10:41:56;;;;;;;60.95;16.80;;;;;;;2.84;96.98;103939.88;5015331;28;20505;-75
2022/01/12 10:44:23;;;;;;;58.90;16.92;;;;;;;2.87;96.64;103934.56;5010459;28;20068;-75
2022/01/12 10:46:50;;;;;;;54.92;18.33;;;;;;;2.92;96.45;103938.19;5019499;28;20021;-74
2022/01/12 10:49:20;;;;;;;60.85;17.67;;;;;;;2.95;96.59;103937.31;5026432;28;20021;-75
2022/01/12 10:51:54;;;;;;;55.83;17.83;;;;;;;2.96;96.21;103934.63;5026201;28;20028;-75
2022/01/12 10:54:20;;;;;;;54.33;18.73;;;;;;;3.01;96.37;103932.00;5041237;28;20045;-75
2022/01/12 10:56:45;;;;;;;53.03;18.48;;;;;;;3.05;96.27;103937.41;5028710;28;20059;-74
2022/01/12 10:59:16;;;;;;;50.47;15.98;;;;;;;3.11;96.39;103939.25;5024724;28;20038;-74
2022/01/12 11:01:42;;;;;;;52.30;17.65;;;;;;;3.11;95.77;103947.31;5027575;28;20059;-75
2022/01/12 11:04:07;;;;;;;58.47;18.88;;;;;;;3.11;95.84;103949.09;5027677;28;20112;-74
2022/01/12 11:06:33;;;;;;;48.58;16.88;;;;;;;3.11;95.43;103947.31;5026440;28;20029;-75
2022/01/12 11:08:59;;;;;;;46.10;16.83;;;;;;;3.11;95.39;103936.56;5029876;28;20558;-75
2022/01/12 11:11:26;;;;;;;60.88;18.27;;;;;;;3.19;95.30;103942.00;5028772;28;20462;-74
2022/01/12 11:13:52;;;;;;;51.67;17.75;;;;;;;3.16;94.85;103940.19;5022545;28;20044;-75
2022/01/12 11:16:26;;;;;;;48.28;17.48;;;;;;;3.13;94.86;103940.19;5020019;28;20022;-75
2022/01/12 11:18:54;;;;;;;44.17;16.10;;;;;;;3.12;95.10;103938.34;5027747;28;20028;-75
2022/01/12 11:21:56;;;;;;;48.65;17.80;;;;;;;3.13;94.96;103937.50;5018754;28;20846;-75
2022/01/12 11:24:25;;;;;;;47.17;18.10;;;;;;;3.12;94.88;103949.09;5018712;28;20393;-75
2022/01/12 11:26:54;;;;;;;45.22;15.55;;;;;;;3.12;94.97;103956.28;5023585;28;20171;-74
2022/01/12 11:29:34;;;;;;;46.92;15.02;;;;;;;3.05;94.72;103961.63;5007764;28;20137;-75
2022/01/12 11:32:13;;;;;;;45.85;16.45;;;;;;;3.00;94.44;103959.78;5026605;28;20018;-74
2022/01/12 11:34:39;;;;;;;49.42;16.25;;;;;;;2.98;94.27;103958.84;5012042;28;20030;-74
2022/01/12 11:37:16;;;;;;;41.78;15.18;;;;;;;2.98;94.50;103956.16;5009198;28;20010;-75
2022/01/12 11:39:42;;;;;;;44.10;16.63;;;;;;;3.03;94.64;103957.09;5014566;28;20089;-75
2022/01/12 11:42:08;;;;;;;51.08;16.75;;;;;;;3.11;95.16;103951.78;5012937;28;20428;-74
2022/01/12 11:44:36;;;;;;;53.28;17.73;;;;;;;3.16;94.91;103950.03;5010056;28;20083;-75
2022/01/12 11:47:03;;;;;;;45.38;16.42;;;;;;;3.25;95.00;103956.41;5021656;28;20085;-75
2022/01/12 11:49:44;;;;;;;45.28;15.85;;;;;;;3.29;94.41;103941.19;5022129;28;20026;-74
2022/01/12 11:52:18;;;;;;;50.92;17.02;;;;;;;3.31;94.10;103934.94;5020829;28;20039;-75
2022/01/12 11:54:47;;;;;;;49.88;15.65;;;;;;;3.35;93.87;103926.88;5014889;28;20133;-75
2022/01/12 11:57:18;;;;;;;40.80;17.63;;;;;;;3.41;94.18;103926.94;5015625;28;20037;-75
2022/01/12 11:59:55;;;;;;;49.47;15.00;;;;;;;3.45;94.26;103926.97;5005400;28;20091;-74
2022/01/12 12:02:40;;;;;;;51.15;16.42;;;;;;;3.54;94.42;103943.19;5014864;28;20036;-75
2022/01/12 12:05:19;;;;;;;40.63;16.55;;;;;;;3.58;93.93;103938.69;5007594;28;20347;-75
2022/01/12 12:07:53;;;;;;;52.50;17.05;;;;;;;3.65;93.94;103939.66;5006481;28;20448;-74
2022/01/12 12:10:21;;;;;;;43.47;16.30;;;;;;;3.69;93.67;103938.78;5010854;28;20021;-75
2022/01/12 12:12:47;;;;;;;40.13;16.55;;;;;;;3.71;93.21;103943.28;5010147;28;20478;-75
2022/01/12 12:15:13;;;;;;;47.67;17.25;;;;;;;3.72;92.76;103946.84;5005714;28;20157;-75
2022/01/12 12:17:41;;;;;;;41.80;16.45;;;;;;;3.69;92.47;103947.75;5009867;28;20022;-75
2022/01/12 12:20:10;;;;;;;35.97;15.40;;;;;;;3.58;91.43;103942.28;5006683;28;20359;-75
2022/01/12 12:22:40;;;;;;;43.78;15.55;;;;;;;3.53;91.70;103937.75;5007676;28;20508;-75
2022/01/12 12:25:16;;;;;;;40.65;13.80;;;;;;;3.44;91.92;103933.22;5020545;28;20017;-74
2022/01/12 12:27:43;;;;;;;39.47;14.93;;;;;;;3.43;92.38;103941.28;5006077;28;20037;-74
2022/01/12 12:30:13;;;;;;;40.78;14.93;;;;;;;3.42;92.11;103935.00;5010680;28;20021;-75
2022/01/12 12:32:47;;;;;;;40.67;15.88;;;;;;;3.40;92.68;103938.56;5008350;28;20069;-75
2022/01/12 12:35:18;;;;;;;45.53;15.70;;;;;;;3.45;93.13;103934.13;5006532;28;20022;-75
2022/01/12 12:37:51;;;;;;;39.47;14.57;;;;;;;3.49;92.40;103936.84;5006977;28;20113;-75